Terminal Aerodrome Forecast
Issued by NWS

Home | Current Version | Previous Version | Text Only | Print | Product List | Glossary On
Versions: 1 2 3 4 5 6 7 8 9 10 11 12 13 14 15 16 17 18 19 20 21 22 23 24 25 26 27 28 29 30 31 32 33 34
000
FTUS45 KSLC 300528
TAFSGU
TAF
KSGU 300528Z 3006/0106 15012G20KT P6SM SCT120 BKN180
      TEMPO 3006/3007 13017G27KT P6SM TS BKN120CB OVC180
     FM300700 17010KT P6SM BKN180
     FM301100 11007KT P6SM FEW180
     FM302000 25012G18KT P6SM FEW120 BKN200
     FM010100 26010KT P6SM BKN200
      AMD LTD TO CLD VIS AND WIND=

USA.gov is the U.S. government's official web portal to all federal, state and local government web resources and services.